createdAt,value
2023-04-17T00:00:00.227Z,9.9
2023-04-17T00:01:02.548Z,9.9
2023-04-17T00:02:01.126Z,9.8
2023-04-17T00:03:01.420Z,9.8
2023-04-17T00:04:01.234Z,9.8
2023-04-17T00:05:02.469Z,9.8
2023-04-17T00:06:04.769Z,9.8
2023-04-17T00:07:01.079Z,9.8
2023-04-17T00:08:01.097Z,9.8
2023-04-17T00:09:00.782Z,9.8
2023-04-17T00:10:01.140Z,9.9
2023-04-17T00:11:08.438Z,9.9
2023-04-17T00:12:00.689Z,9.8
2023-04-17T00:13:00.434Z,9.8
2023-04-17T00:14:00.334Z,9.8
2023-04-17T00:14:59.985Z,9.8
2023-04-17T00:16:08.289Z,9.8
2023-04-17T00:17:01.037Z,9.8
2023-04-17T00:18:01.133Z,9.8
2023-04-17T00:19:00.782Z,9.8
2023-04-17T00:20:00.536Z,9.8
2023-04-17T00:21:10.735Z,9.8
2023-04-17T00:22:01.448Z,9.8
2023-04-17T00:23:01.495Z,9.8
2023-04-17T00:24:01.754Z,9.8
2023-04-17T00:25:01.178Z,9.8
2023-04-17T00:26:13.012Z,9.8
2023-04-17T00:27:01.111Z,9.8
2023-04-17T00:28:02.086Z,9.8
2023-04-17T00:29:01.119Z,9.8
2023-04-17T00:30:00.793Z,9.8
2023-04-17T00:31:13.799Z,9.8
2023-04-17T00:32:01.152Z,9.8
2023-04-17T00:33:01.142Z,9.8
2023-04-17T00:34:01.047Z,9.8
2023-04-17T00:35:01.186Z,9.7
2023-04-17T00:36:16.715Z,9.7
2023-04-17T00:37:01.096Z,9.7
2023-04-17T00:38:01.080Z,9.7
2023-04-17T00:39:00.633Z,9.7
2023-04-17T00:40:00.252Z,9.8
2023-04-17T00:40:59.864Z,9.7
2023-04-17T00:42:01.920Z,9.7
2023-04-17T00:43:01.123Z,9.7
2023-04-17T00:44:01.111Z,9.7
2023-04-17T00:45:01.490Z,9.7
2023-04-17T00:46:02.265Z,9.7
2023-04-17T00:47:01.134Z,9.6
2023-04-17T00:48:01.152Z,9.7
2023-04-17T00:49:01.041Z,9.7
2023-04-17T00:50:01.073Z,9.6
2023-04-17T00:51:01.056Z,9.6
2023-04-17T00:52:01.067Z,9.6
2023-04-17T00:53:01.063Z,9.6
2023-04-17T00:54:01.443Z,9.6
2023-04-17T00:55:01.032Z,9.6
2023-04-17T00:56:01.080Z,9.7
2023-04-17T00:57:01.095Z,9.7
2023-04-17T00:58:01.103Z,9.6
2023-04-17T00:59:01.106Z,9.6
2023-04-17T01:00:01.132Z,9.6
2023-04-17T01:01:01.178Z,9.6
2023-04-17T01:02:01.417Z,9.6
2023-04-17T01:03:01.421Z,9.6
2023-04-17T01:04:02.219Z,9.6
2023-04-17T01:05:01.153Z,9.6
2023-04-17T01:06:01.045Z,9.6
2023-04-17T01:07:01.083Z,9.6
2023-04-17T01:08:01.050Z,9.6
2023-04-17T01:09:01.117Z,9.6
2023-04-17T01:10:01.068Z,9.6
2023-04-17T01:11:01.074Z,9.6
2023-04-17T01:12:01.425Z,9.6
2023-04-17T01:13:01.144Z,9.6
2023-04-17T01:14:02.228Z,9.6
2023-04-17T01:15:01.112Z,9.6
2023-04-17T01:16:01.197Z,9.6
2023-04-17T01:17:01.298Z,9.6
2023-04-17T01:18:01.642Z,9.6
2023-04-17T01:19:01.144Z,9.6
2023-04-17T01:20:01.856Z,9.6
2023-04-17T01:21:02.573Z,9.6
2023-04-17T01:22:01.796Z,9.5
2023-04-17T01:23:01.236Z,9.5
2023-04-17T01:24:02.040Z,9.5
2023-04-17T01:25:02.081Z,9.5
2023-04-17T01:26:01.072Z,9.5
2023-04-17T01:27:01.077Z,9.5
2023-04-17T01:28:01.094Z,9.5
2023-04-17T01:29:01.295Z,9.5
2023-04-17T01:30:01.209Z,9.5
2023-04-17T01:31:01.332Z,9.5
2023-04-17T01:32:01.120Z,9.5
2023-04-17T01:33:01.149Z,9.5
2023-04-17T01:34:00.803Z,9.5
2023-04-17T01:35:00.418Z,9.5
2023-04-17T01:36:00.087Z,9.5
2023-04-17T01:36:59.658Z,9.5
2023-04-17T01:38:01.741Z,9.5
2023-04-17T01:39:01.340Z,9.5
2023-04-17T01:40:01.264Z,9.4
2023-04-17T01:41:02.065Z,9.4
2023-04-17T01:42:01.329Z,9.4
2023-04-17T01:43:01.098Z,9.4
2023-04-17T01:44:01.138Z,9.4
2023-04-17T01:45:01.659Z,9.4
2023-04-17T01:46:02.241Z,9.4
2023-04-17T01:47:01.400Z,9.4
2023-04-17T01:48:02.455Z,9.4
2023-04-17T01:49:02.030Z,9.3
2023-04-17T01:50:01.157Z,9.3
2023-04-17T01:51:01.067Z,9.3
2023-04-17T01:52:01.054Z,9.3
2023-04-17T01:53:01.124Z,9.3
2023-04-17T01:54:02.095Z,9.3
2023-04-17T01:55:07.876Z,9.3
2023-04-17T01:56:01.901Z,9.3
2023-04-17T01:57:04.082Z,9.3
2023-04-17T01:58:02.407Z,9.3
2023-04-17T01:59:01.792Z,9.3
2023-04-17T02:00:02.630Z,9.3
2023-04-17T02:01:01.553Z,9.3
2023-04-17T02:02:06.948Z,9.3
2023-04-17T02:03:02.195Z,9.3
2023-04-17T02:04:01.167Z,9.3
2023-04-17T02:05:01.538Z,9.3
2023-04-17T02:06:02.034Z,9.3
2023-04-17T02:07:10.184Z,9.3
2023-04-17T02:08:01.135Z,9.3
2023-04-17T02:09:00.811Z,9.3
2023-04-17T02:10:00.428Z,9.2
2023-04-17T02:11:00.163Z,9.2
2023-04-17T02:12:12.376Z,9.2
2023-04-17T02:13:01.162Z,9.2
2023-04-17T02:14:01.494Z,9.3
2023-04-17T02:15:00.928Z,9.3
2023-04-17T02:16:01.133Z,9.3
2023-04-17T02:17:15.935Z,9.2
2023-04-17T02:18:02.156Z,9.2
2023-04-17T02:19:01.011Z,9.2
2023-04-17T02:20:01.085Z,9.2
2023-04-17T02:21:01.102Z,9.2
2023-04-17T02:22:01.343Z,9.1
2023-04-17T02:23:01.141Z,9.2
2023-04-17T02:24:01.130Z,9.2
2023-04-17T02:25:01.152Z,9.2
2023-04-17T02:26:01.157Z,9.2
2023-04-17T02:27:01.165Z,9.1
2023-04-17T02:28:04.237Z,9.2
2023-04-17T02:29:01.769Z,9.2
2023-04-17T02:30:01.688Z,9.2
2023-04-17T02:31:01.816Z,9.2
2023-04-17T02:32:01.089Z,9.2
2023-04-17T02:33:01.167Z,9.2
2023-04-17T02:34:01.837Z,9.1
2023-04-17T02:35:00.996Z,9.2
2023-04-17T02:36:01.514Z,9.1
2023-04-17T02:37:02.130Z,9.1
2023-04-17T02:38:01.118Z,9.1
2023-04-17T02:39:01.045Z,9.2
2023-04-17T02:40:01.157Z,9.1
2023-04-17T02:41:01.091Z,9.1
2023-04-17T02:42:01.781Z,9.1
2023-04-17T02:43:01.255Z,9.1
2023-04-17T02:44:01.148Z,9.1
2023-04-17T02:45:02.099Z,9.1
2023-04-17T02:46:01.076Z,9.1
2023-04-17T02:47:01.118Z,9.1
2023-04-17T02:48:01.154Z,9.1
2023-04-17T02:49:01.081Z,9.1
2023-04-17T02:50:01.092Z,9.1
2023-04-17T02:51:01.122Z,9.1
2023-04-17T02:52:01.142Z,9.1
2023-04-17T02:53:01.592Z,9.1
2023-04-17T02:54:01.648Z,9.1
2023-04-17T02:55:01.739Z,9.1
2023-04-17T02:56:01.333Z,9.1
2023-04-17T02:57:01.044Z,9.1
2023-04-17T02:58:01.052Z,9.1
2023-04-17T02:59:01.076Z,9.1
2023-04-17T03:00:01.609Z,9.1
2023-04-17T03:01:01.544Z,9.1
2023-04-17T03:02:02.313Z,9.1
2023-04-17T03:03:02.118Z,9.1
2023-04-17T03:04:02.264Z,9.1
2023-04-17T03:05:02.414Z,9.1
2023-04-17T03:06:02.158Z,9.1
2023-04-17T03:07:01.109Z,9.1
2023-04-17T03:08:01.461Z,9
2023-04-17T03:09:01.128Z,9
2023-04-17T03:10:01.206Z,9
2023-04-17T03:11:01.126Z,9
2023-04-17T03:12:01.028Z,9
2023-04-17T03:13:01.292Z,9
2023-04-17T03:14:02.497Z,9
2023-04-17T03:15:01.564Z,9
2023-04-17T03:16:01.203Z,9
2023-04-17T03:17:01.119Z,9
2023-04-17T03:18:01.165Z,9
2023-04-17T03:19:01.853Z,9
2023-04-17T03:20:01.936Z,9
2023-04-17T03:21:01.105Z,9
2023-04-17T03:22:01.111Z,9
2023-04-17T03:23:01.905Z,9
2023-04-17T03:24:01.132Z,9
2023-04-17T03:25:01.128Z,9
2023-04-17T03:26:01.462Z,9
2023-04-17T03:27:01.432Z,9
2023-04-17T03:28:01.140Z,9
2023-04-17T03:29:01.162Z,9
2023-04-17T03:30:01.117Z,9
2023-04-17T03:31:01.064Z,9
2023-04-17T03:32:01.102Z,9
2023-04-17T03:33:01.180Z,9
2023-04-17T03:34:01.416Z,9
2023-04-17T03:35:01.992Z,9
2023-04-17T03:36:01.225Z,9
2023-04-17T03:37:01.096Z,9
2023-04-17T03:38:02.990Z,9
2023-04-17T03:39:00.812Z,8.9
2023-04-17T03:40:00.494Z,8.9
2023-04-17T03:41:00.197Z,8.9
2023-04-17T03:42:00.038Z,8.9
2023-04-17T03:43:05.469Z,8.8
2023-04-17T03:44:01.413Z,8.8
2023-04-17T03:45:01.046Z,8.8
2023-04-17T03:46:01.069Z,8.8
2023-04-17T03:47:01.125Z,8.9
2023-04-17T03:48:09.372Z,8.8
2023-04-17T03:49:01.766Z,8.8
2023-04-17T03:50:01.369Z,8.8
2023-04-17T03:51:01.937Z,8.8
2023-04-17T03:52:01.165Z,8.8
2023-04-17T03:53:10.672Z,8.8
2023-04-17T03:54:01.355Z,8.8
2023-04-17T03:55:01.106Z,8.8
2023-04-17T03:56:01.214Z,8.8
2023-04-17T03:57:01.133Z,8.7
2023-04-17T03:58:13.324Z,8.8
2023-04-17T03:59:01.028Z,8.7
2023-04-17T04:00:01.141Z,8.8
2023-04-17T04:01:01.047Z,8.7
2023-04-17T04:02:01.133Z,8.8
2023-04-17T04:03:14.810Z,8.7
2023-04-17T04:04:04.150Z,8.7
2023-04-17T04:05:02.299Z,8.7
2023-04-17T04:06:02.493Z,8.7
2023-04-17T04:07:01.083Z,8.7
2023-04-17T04:08:16.857Z,8.7
2023-04-17T04:09:01.080Z,8.7
2023-04-17T04:10:01.099Z,8.7
2023-04-17T04:11:01.118Z,8.7
2023-04-17T04:12:01.104Z,8.7
2023-04-17T04:13:01.061Z,8.7
2023-04-17T04:14:01.109Z,8.6
2023-04-17T04:15:01.073Z,8.6
2023-04-17T04:16:00.938Z,8.6
2023-04-17T04:17:01.098Z,8.6
2023-04-17T04:18:01.098Z,8.6
2023-04-17T04:19:01.490Z,8.6
2023-04-17T04:20:01.071Z,8.6
2023-04-17T04:21:01.067Z,8.6
2023-04-17T04:22:01.064Z,8.6
2023-04-17T04:23:00.747Z,8.6
2023-04-17T04:24:00.359Z,8.6
2023-04-17T04:25:00.047Z,8.6
2023-04-17T04:25:59.756Z,8.6
2023-04-17T04:27:01.452Z,8.6
2023-04-17T04:28:01.333Z,8.6
2023-04-17T04:29:01.818Z,8.6
2023-04-17T04:30:01.113Z,8.6
2023-04-17T04:31:01.460Z,8.6
2023-04-17T04:32:03.120Z,8.6
2023-04-17T04:33:01.291Z,8.6
2023-04-17T04:34:02.059Z,8.6
2023-04-17T04:35:01.207Z,8.6
2023-04-17T04:36:01.657Z,8.6
2023-04-17T04:37:01.058Z,8.6
2023-04-17T04:38:01.065Z,8.6
2023-04-17T04:39:01.358Z,8.6
2023-04-17T04:40:01.283Z,8.6
2023-04-17T04:41:03.992Z,8.6
2023-04-17T04:42:01.696Z,8.6
2023-04-17T04:43:00.636Z,8.6
2023-04-17T04:44:00.469Z,8.6
2023-04-17T04:45:00.077Z,8.6
2023-04-17T04:45:59.789Z,8.5
2023-04-17T04:47:01.760Z,8.6
2023-04-17T04:48:01.438Z,8.6
2023-04-17T04:49:01.069Z,8.5
2023-04-17T04:50:01.049Z,8.5
2023-04-17T04:51:01.050Z,8.5
2023-04-17T04:52:01.166Z,8.5
2023-04-17T04:53:01.659Z,8.5
2023-04-17T04:54:01.481Z,8.5
2023-04-17T04:55:01.749Z,8.6
2023-04-17T04:56:02.214Z,8.6
2023-04-17T04:57:02.230Z,8.6
2023-04-17T04:58:01.527Z,8.6
2023-04-17T04:59:01.180Z,8.6
2023-04-17T05:00:01.109Z,8.6
2023-04-17T05:01:01.225Z,8.6
2023-04-17T05:02:01.996Z,8.6
2023-04-17T05:03:01.379Z,8.5
2023-04-17T05:04:02.361Z,8.5
2023-04-17T05:05:01.582Z,8.5
2023-04-17T05:06:01.039Z,8.5
2023-04-17T05:07:01.060Z,8.5
2023-04-17T05:08:01.049Z,8.5
2023-04-17T05:09:01.085Z,8.5
2023-04-17T05:10:01.079Z,8.4
2023-04-17T05:11:01.081Z,8.5
2023-04-17T05:12:01.100Z,8.5
2023-04-17T05:13:01.100Z,8.5
2023-04-17T05:14:01.740Z,8.5
2023-04-17T05:15:01.062Z,8.5
2023-04-17T05:16:01.974Z,8.4
2023-04-17T05:17:02.709Z,8.5
2023-04-17T05:18:01.245Z,8.4
2023-04-17T05:19:01.636Z,8.4
2023-04-17T05:20:02.618Z,8.4
2023-04-17T05:21:01.333Z,8.5
2023-04-17T05:22:01.953Z,8.5
2023-04-17T05:23:01.040Z,8.5
2023-04-17T05:24:01.444Z,8.4
2023-04-17T05:25:01.015Z,8.4
2023-04-17T05:26:01.063Z,8.4
2023-04-17T05:27:01.347Z,8.4
2023-04-17T05:28:01.084Z,8.4
2023-04-17T05:29:01.100Z,8.3
2023-04-17T05:30:01.041Z,8.3
2023-04-17T05:31:01.108Z,8.3
2023-04-17T05:32:02.817Z,8.3
2023-04-17T05:33:01.547Z,8.3
2023-04-17T05:34:02.786Z,8.3
2023-04-17T05:35:01.181Z,8.3
2023-04-17T05:36:01.132Z,8.3
2023-04-17T05:37:01.036Z,8.3
2023-04-17T05:38:01.065Z,8.3
2023-04-17T05:39:05.420Z,8.3
2023-04-17T05:40:01.464Z,8.3
2023-04-17T05:41:01.036Z,8.3
2023-04-17T05:42:01.068Z,8.2
2023-04-17T05:43:01.082Z,8.2
2023-04-17T05:44:09.532Z,8.2
2023-04-17T05:45:00.634Z,8.1
2023-04-17T05:46:00.319Z,8.2
2023-04-17T05:47:00.061Z,8.1
2023-04-17T05:47:59.737Z,8.1
2023-04-17T05:49:12.076Z,8.2
2023-04-17T05:50:02.187Z,8.2
2023-04-17T05:51:01.168Z,8.2
2023-04-17T05:52:01.158Z,8.3
2023-04-17T05:53:01.027Z,8.3
2023-04-17T05:54:14.645Z,8.3
2023-04-17T05:55:01.041Z,8.3
2023-04-17T05:56:01.040Z,8.3
2023-04-17T05:57:01.062Z,8.3
2023-04-17T05:58:05.661Z,8.3
2023-04-17T05:59:16.408Z,8.3
2023-04-17T06:00:01.385Z,8.3
2023-04-17T06:01:01.190Z,8.3
2023-04-17T06:02:00.810Z,8.3
2023-04-17T06:03:00.751Z,8.3
2023-04-17T06:04:02.171Z,8.4
2023-04-17T06:05:01.398Z,8.3
2023-04-17T06:06:01.194Z,8.4
2023-04-17T06:07:01.121Z,8.4
2023-04-17T06:08:01.115Z,8.5
2023-04-17T06:09:00.847Z,8.5
2023-04-17T06:10:00.682Z,8.5
2023-04-17T06:11:00.421Z,8.5
2023-04-17T06:12:00.138Z,8.5
2023-04-17T06:12:59.855Z,8.5
2023-04-17T06:14:01.778Z,8.5
2023-04-17T06:15:01.824Z,8.6
2023-04-17T06:16:01.088Z,8.6
2023-04-17T06:17:01.154Z,8.6
2023-04-17T06:18:01.133Z,8.6
2023-04-17T06:19:01.049Z,8.6
2023-04-17T06:20:01.319Z,8.6
2023-04-17T06:21:01.376Z,8.6
2023-04-17T06:22:01.423Z,8.7
2023-04-17T06:23:01.393Z,8.7
2023-04-17T06:24:04.188Z,8.7
2023-04-17T06:25:01.035Z,8.6
2023-04-17T06:26:01.029Z,8.6
2023-04-17T06:27:01.047Z,8.6
2023-04-17T06:28:01.052Z,8.6
2023-04-17T06:29:01.062Z,8.6
2023-04-17T06:30:01.071Z,8.6
2023-04-17T06:31:01.128Z,8.6
2023-04-17T06:32:01.071Z,8.6
2023-04-17T06:33:01.120Z,8.5
2023-04-17T06:34:01.135Z,8.5
2023-04-17T06:35:01.788Z,8.5
2023-04-17T06:36:01.104Z,8.5
2023-04-17T06:37:01.130Z,8.6
2023-04-17T06:38:01.158Z,8.6
2023-04-17T06:39:01.121Z,8.6
2023-04-17T06:40:01.207Z,8.6
2023-04-17T06:41:01.170Z,8.6
2023-04-17T06:42:01.051Z,8.6
2023-04-17T06:43:01.140Z,8.6
2023-04-17T06:44:01.051Z,8.6
2023-04-17T06:45:01.016Z,8.6
2023-04-17T06:46:01.068Z,8.6
2023-04-17T06:47:02.867Z,8.6
2023-04-17T06:48:01.532Z,8.6
2023-04-17T06:49:00.774Z,8.6
2023-04-17T06:50:00.411Z,8.6
2023-04-17T06:50:59.953Z,8.6
2023-04-17T06:51:59.549Z,8.6
2023-04-17T06:53:01.134Z,8.6
2023-04-17T06:54:01.140Z,8.6
2023-04-17T06:55:01.125Z,8.6
2023-04-17T06:56:01.161Z,8.6
2023-04-17T06:57:01.160Z,8.6
2023-04-17T06:58:01.188Z,8.6
2023-04-17T06:59:03.029Z,8.6
2023-04-17T07:00:01.905Z,8.6
2023-04-17T07:01:02.638Z,8.6
2023-04-17T07:02:01.927Z,8.6
2023-04-17T07:03:01.223Z,8.6
2023-04-17T07:04:01.062Z,8.7
2023-04-17T07:05:01.083Z,8.8
2023-04-17T07:06:01.089Z,8.8
2023-04-17T07:07:01.114Z,8.8
2023-04-17T07:08:01.494Z,8.8
2023-04-17T07:09:00.803Z,8.8
2023-04-17T07:10:00.394Z,8.8
2023-04-17T07:10:59.976Z,8.8
2023-04-17T07:11:59.526Z,8.8
2023-04-17T07:13:01.757Z,8.9
2023-04-17T07:14:01.048Z,8.9
2023-04-17T07:15:01.264Z,8.9
2023-04-17T07:16:01.577Z,8.9
2023-04-17T07:17:01.402Z,8.9
2023-04-17T07:18:01.161Z,8.8
2023-04-17T07:19:02.031Z,8.8
2023-04-17T07:20:01.134Z,8.8
2023-04-17T07:21:01.079Z,8.8
2023-04-17T07:22:01.101Z,8.8
2023-04-17T07:23:01.101Z,8.8
2023-04-17T07:24:01.104Z,8.9
2023-04-17T07:25:01.353Z,8.9
2023-04-17T07:26:01.104Z,8.9
2023-04-17T07:27:01.137Z,9
2023-04-17T07:28:02.614Z,9
2023-04-17T07:29:00.835Z,9
2023-04-17T07:30:00.538Z,9
2023-04-17T07:31:00.385Z,9.1
2023-04-17T07:32:00.141Z,9.1
2023-04-17T07:32:59.816Z,9.1
2023-04-17T07:33:59.404Z,9.2
2023-04-17T07:35:03.261Z,9.3
2023-04-17T07:36:02.077Z,9.3
2023-04-17T07:37:01.396Z,9.4
2023-04-17T07:38:01.407Z,9.4
2023-04-17T07:39:02.111Z,9.3
2023-04-17T07:40:08.068Z,9.3
2023-04-17T07:41:01.094Z,9.2
2023-04-17T07:42:01.117Z,9.1
2023-04-17T07:43:01.112Z,9
2023-04-17T07:44:01.117Z,9
2023-04-17T07:45:10.338Z,9
2023-04-17T07:46:00.548Z,8.9
2023-04-17T07:47:00.167Z,8.8
2023-04-17T07:47:59.940Z,8.8
2023-04-17T07:48:59.603Z,8.8
2023-04-17T07:50:13.417Z,8.8
2023-04-17T07:51:01.788Z,8.8
2023-04-17T07:52:02.015Z,8.8
2023-04-17T07:53:01.774Z,8.8
2023-04-17T07:54:01.100Z,8.7
2023-04-17T07:55:16.961Z,8.8
2023-04-17T07:56:01.116Z,8.8
2023-04-17T07:57:01.313Z,8.7
2023-04-17T07:58:01.121Z,8.7
2023-04-17T07:59:01.129Z,8.7
2023-04-17T08:00:01.166Z,8.6
2023-04-17T08:01:01.611Z,8.6
2023-04-17T08:02:02.146Z,8.6
2023-04-17T08:03:03.018Z,8.5
2023-04-17T08:04:01.625Z,8.5
2023-04-17T08:05:01.186Z,8.5
2023-04-17T08:06:01.085Z,8.5
2023-04-17T08:07:01.060Z,8.5
2023-04-17T08:08:01.107Z,8.5
2023-04-17T08:09:01.113Z,8.5
2023-04-17T08:10:00.769Z,8.5
2023-04-17T08:11:00.308Z,8.5
2023-04-17T08:11:59.961Z,8.5
2023-04-17T08:12:59.544Z,8.5
2023-04-17T08:14:01.138Z,8.5
2023-04-17T08:15:00.744Z,8.6
2023-04-17T08:16:00.400Z,8.6
2023-04-17T08:17:00.247Z,8.6
2023-04-17T08:18:00.278Z,8.6
2023-04-17T08:19:00.240Z,8.6
2023-04-17T08:20:00.257Z,8.6
2023-04-17T08:20:59.920Z,8.6
2023-04-17T08:21:59.526Z,8.6
2023-04-17T08:23:02.034Z,8.6
2023-04-17T08:24:01.076Z,8.6
2023-04-17T08:25:01.079Z,8.6
2023-04-17T08:26:01.104Z,8.6
2023-04-17T08:27:01.542Z,8.6
2023-04-17T08:28:01.203Z,8.6
2023-04-17T08:29:01.106Z,8.5
2023-04-17T08:30:00.798Z,8.6
2023-04-17T08:31:01.320Z,8.5
2023-04-17T08:32:14.101Z,8.5
2023-04-17T08:33:01.543Z,8.5
2023-04-17T08:34:12.965Z,8.5
2023-04-17T08:35:01.721Z,8.5
2023-04-17T08:36:03.622Z,8.5
2023-04-17T08:37:01.112Z,8.5
2023-04-17T08:38:01.478Z,8.5
2023-04-17T08:39:01.439Z,8.5
2023-04-17T08:40:01.193Z,8.5
2023-04-17T08:41:01.071Z,8.5
2023-04-17T08:42:01.075Z,8.5
2023-04-17T08:43:01.094Z,8.5
2023-04-17T08:44:01.162Z,8.5
2023-04-17T08:45:01.122Z,8.5
2023-04-17T08:46:01.512Z,8.5
2023-04-17T08:47:01.262Z,8.5
2023-04-17T08:48:01.138Z,8.5
2023-04-17T08:49:01.030Z,8.5
2023-04-17T08:50:00.495Z,8.5
2023-04-17T08:51:00.129Z,8.4
2023-04-17T08:51:59.835Z,8.5
2023-04-17T08:53:02.597Z,8.5
2023-04-17T08:54:01.852Z,8.5
2023-04-17T08:55:01.272Z,8.5
2023-04-17T08:56:03.132Z,8.5
2023-04-17T08:57:01.076Z,8.5
2023-04-17T08:58:01.391Z,8.5
2023-04-17T08:59:01.038Z,8.5
2023-04-17T09:00:01.112Z,8.5
2023-04-17T09:01:01.217Z,8.5
2023-04-17T09:02:01.382Z,8.5
2023-04-17T09:03:01.716Z,8.6
2023-04-17T09:04:01.554Z,8.5
2023-04-17T09:05:01.521Z,8.5
2023-04-17T09:06:01.049Z,8.5
2023-04-17T09:07:01.039Z,8.5
2023-04-17T09:08:01.285Z,8.6
2023-04-17T09:09:01.065Z,8.6
2023-04-17T09:10:00.782Z,8.6
2023-04-17T09:11:01.066Z,8.6
2023-04-17T09:12:00.819Z,8.6
2023-04-17T09:13:01.091Z,8.6
2023-04-17T09:14:01.481Z,8.6
2023-04-17T09:15:01.095Z,8.7
2023-04-17T09:16:03.511Z,8.7
2023-04-17T09:17:01.181Z,8.6
2023-04-17T09:18:01.153Z,8.6
2023-04-17T09:19:01.123Z,8.6
2023-04-17T09:20:01.402Z,8.6
2023-04-17T09:21:05.742Z,8.6
2023-04-17T09:22:01.352Z,8.6
2023-04-17T09:23:02.105Z,8.6
2023-04-17T09:24:02.269Z,8.6
2023-04-17T09:25:01.061Z,8.6
2023-04-17T09:26:09.269Z,8.6
2023-04-17T09:27:01.074Z,8.6
2023-04-17T09:28:01.068Z,8.6
2023-04-17T09:29:01.032Z,8.5
2023-04-17T09:30:01.952Z,8.6
2023-04-17T09:31:12.344Z,8.6
2023-04-17T09:32:01.472Z,8.6
2023-04-17T09:33:02.820Z,8.6
2023-04-17T09:34:02.613Z,8.6
2023-04-17T09:35:01.730Z,8.6
2023-04-17T09:36:12.673Z,8.7
2023-04-17T09:37:01.439Z,8.7
2023-04-17T09:38:01.039Z,8.7
2023-04-17T09:39:01.372Z,8.8
2023-04-17T09:40:01.067Z,8.8
2023-04-17T09:41:16.400Z,8.8
2023-04-17T09:42:03.166Z,8.8
2023-04-17T09:43:01.394Z,8.8
2023-04-17T09:44:02.242Z,8.8
2023-04-17T09:45:02.313Z,8.7
2023-04-17T09:46:01.086Z,8.7
2023-04-17T09:47:01.402Z,8.6
2023-04-17T09:48:01.299Z,8.7
2023-04-17T09:49:02.013Z,8.6
2023-04-17T09:50:01.564Z,8.7
2023-04-17T09:51:01.010Z,8.7
2023-04-17T09:52:01.135Z,8.7
2023-04-17T09:53:01.042Z,8.7
2023-04-17T09:54:01.050Z,8.7
2023-04-17T09:55:01.073Z,8.6
2023-04-17T09:56:01.045Z,8.6
2023-04-17T09:57:01.051Z,8.7
2023-04-17T09:58:01.061Z,8.8
2023-04-17T09:59:01.059Z,8.8
2023-04-17T10:00:01.071Z,8.7
2023-04-17T10:01:01.135Z,8.7
2023-04-17T10:02:02.949Z,8.7
2023-04-17T10:03:01.263Z,8.6
2023-04-17T10:04:01.248Z,8.6
2023-04-17T10:05:02.149Z,8.6
2023-04-17T10:06:01.044Z,8.6
2023-04-17T10:07:01.033Z,8.6
2023-04-17T10:08:01.527Z,8.6
2023-04-17T10:09:01.197Z,8.6
2023-04-17T10:10:01.147Z,8.6
2023-04-17T10:11:00.818Z,8.6
2023-04-17T10:12:00.587Z,8.6
2023-04-17T10:13:00.645Z,8.6
2023-04-17T10:14:00.447Z,8.6
2023-04-17T10:15:00.030Z,8.5
2023-04-17T10:16:00.510Z,8.6
2023-04-17T10:17:00.172Z,8.6
2023-04-17T10:17:59.852Z,8.6
2023-04-17T10:18:59.433Z,8.6
2023-04-17T10:20:02.177Z,8.5
2023-04-17T10:21:06.468Z,8.5
2023-04-17T10:22:01.152Z,8.5
2023-04-17T10:23:01.141Z,8.5
2023-04-17T10:24:01.166Z,8.5
2023-04-17T10:25:00.947Z,8.5
2023-04-17T10:26:01.579Z,8.5
2023-04-17T10:27:01.034Z,8.5
2023-04-17T10:28:01.063Z,8.5
2023-04-17T10:29:01.057Z,8.5
2023-04-17T10:30:00.756Z,8.5
2023-04-17T10:31:00.600Z,8.4
2023-04-17T10:32:00.399Z,8.5
2023-04-17T10:33:00.031Z,8.5
2023-04-17T10:33:59.777Z,8.5
2023-04-17T10:35:01.405Z,8.5
2023-04-17T10:36:02.149Z,8.5
2023-04-17T10:37:01.478Z,8.5
2023-04-17T10:38:01.124Z,8.5
2023-04-17T10:39:01.123Z,8.5
2023-04-17T10:40:01.152Z,8.5
2023-04-17T10:41:01.171Z,8.5
2023-04-17T10:42:01.141Z,8.4
2023-04-17T10:43:01.053Z,8.4
2023-04-17T10:44:01.421Z,8.5
2023-04-17T10:45:01.196Z,8.5
2023-04-17T10:46:01.136Z,8.5
2023-04-17T10:47:01.059Z,8.5
2023-04-17T10:48:01.122Z,8.5
2023-04-17T10:49:01.076Z,8.5
2023-04-17T10:50:01.506Z,8.5
2023-04-17T10:51:00.787Z,8.5
2023-04-17T10:52:00.594Z,8.5
2023-04-17T10:53:00.493Z,8.4
2023-04-17T10:54:00.204Z,8.4
2023-04-17T10:54:59.887Z,8.4
2023-04-17T10:55:59.622Z,8.4
2023-04-17T10:57:01.368Z,8.4
2023-04-17T10:58:01.556Z,8.3
2023-04-17T10:59:02.602Z,8.3
2023-04-17T11:00:01.730Z,8.3
2023-04-17T11:01:01.293Z,8.3
2023-04-17T11:02:02.174Z,8.3
2023-04-17T11:03:01.374Z,8.3
2023-04-17T11:04:01.094Z,8.3
2023-04-17T11:05:01.133Z,8.3
2023-04-17T11:06:01.115Z,8.3
2023-04-17T11:07:01.026Z,8.3
2023-04-17T11:08:01.387Z,8.3
2023-04-17T11:09:01.109Z,8.3
2023-04-17T11:10:01.265Z,8.3
2023-04-17T11:11:01.188Z,8.3
2023-04-17T11:12:02.138Z,8.3
2023-04-17T11:13:01.141Z,8.3
2023-04-17T11:14:01.147Z,8.3
2023-04-17T11:15:01.153Z,8.3
2023-04-17T11:16:01.031Z,8.3
2023-04-17T11:17:04.754Z,8.3
2023-04-17T11:18:01.898Z,8.3
2023-04-17T11:19:03.016Z,8.3
2023-04-17T11:20:01.073Z,8.3
2023-04-17T11:21:01.030Z,8.3
2023-04-17T11:22:06.591Z,8.3
2023-04-17T11:23:01.088Z,8.3
2023-04-17T11:24:01.128Z,8.3
2023-04-17T11:25:01.104Z,8.4
2023-04-17T11:26:01.120Z,8.4
2023-04-17T11:27:09.416Z,8.4
2023-04-17T11:28:02.480Z,8.3
2023-04-17T11:29:01.128Z,8.3
2023-04-17T11:30:01.172Z,8.3
2023-04-17T11:31:01.535Z,8.3
2023-04-17T11:32:11.874Z,8.3
2023-04-17T11:33:02.350Z,8.3
2023-04-17T11:34:01.761Z,8.3
2023-04-17T11:35:01.736Z,8.3
2023-04-17T11:36:02.596Z,8.3
2023-04-17T11:37:14.203Z,8.3
2023-04-17T11:38:01.173Z,8.3
2023-04-17T11:39:01.113Z,8.3
2023-04-17T11:40:01.130Z,8.3
2023-04-17T11:41:01.117Z,8.3
2023-04-17T11:42:16.065Z,8.3
2023-04-17T11:43:01.525Z,8.3
2023-04-17T11:44:01.124Z,8.4
2023-04-17T11:45:03.042Z,8.4
2023-04-17T11:46:01.162Z,8.5
2023-04-17T11:47:01.150Z,8.5
2023-04-17T11:48:01.202Z,8.5
2023-04-17T11:49:01.329Z,8.5
2023-04-17T11:50:01.943Z,8.5
2023-04-17T11:51:01.066Z,8.5
2023-04-17T11:52:01.316Z,8.5
2023-04-17T11:53:01.020Z,8.5
2023-04-17T11:54:01.084Z,8.5
2023-04-17T11:55:01.033Z,8.5
2023-04-17T11:56:01.124Z,8.5
2023-04-17T11:57:01.112Z,8.5
2023-04-17T11:58:01.253Z,8.5
2023-04-17T11:59:01.441Z,8.5
2023-04-17T12:00:02.115Z,8.5
2023-04-17T12:01:01.329Z,8.5
2023-04-17T12:02:01.053Z,8.6
2023-04-17T12:03:01.797Z,8.6
2023-04-17T12:04:02.016Z,8.6
2023-04-17T12:05:01.333Z,8.6
2023-04-17T12:06:02.852Z,8.6
2023-04-17T12:07:01.057Z,8.6
2023-04-17T12:08:01.068Z,8.6
2023-04-17T12:09:01.319Z,8.7
2023-04-17T12:10:01.081Z,8.6
2023-04-17T12:11:00.820Z,8.7
2023-04-17T12:12:00.466Z,8.7
2023-04-17T12:13:00.063Z,8.6
2023-04-17T12:13:59.780Z,8.6
2023-04-17T12:15:02.441Z,8.6
2023-04-17T12:16:01.440Z,8.6
2023-04-17T12:17:01.151Z,8.6
2023-04-17T12:18:01.496Z,8.6
2023-04-17T12:19:04.006Z,8.6
2023-04-17T12:20:01.436Z,8.6
2023-04-17T12:21:01.168Z,8.6
2023-04-17T12:22:01.224Z,8.6
2023-04-17T12:23:01.067Z,8.6
2023-04-17T12:24:01.078Z,8.6
2023-04-17T12:25:01.084Z,8.5
2023-04-17T12:26:01.185Z,8.5
2023-04-17T12:27:01.073Z,8.5
2023-04-17T12:28:01.102Z,8.5
2023-04-17T12:29:01.356Z,8.5
2023-04-17T12:30:01.113Z,8.5
2023-04-17T12:31:01.447Z,8.5
2023-04-17T12:32:01.178Z,8.5
2023-04-17T12:33:01.068Z,8.5
2023-04-17T12:34:01.149Z,8.4
2023-04-17T12:35:01.138Z,8.4
2023-04-17T12:36:01.103Z,8.4
2023-04-17T12:37:01.052Z,8.4
2023-04-17T12:38:01.782Z,8.4
2023-04-17T12:39:01.218Z,8.5
2023-04-17T12:40:01.838Z,8.5
2023-04-17T12:41:02.157Z,8.5
2023-04-17T12:42:01.073Z,8.5
2023-04-17T12:43:01.089Z,8.5
2023-04-17T12:44:01.216Z,8.5
2023-04-17T12:45:01.116Z,8.5
2023-04-17T12:46:00.724Z,8.5
2023-04-17T12:47:00.397Z,8.5
2023-04-17T12:48:00.217Z,8.5
2023-04-17T12:49:00.151Z,8.4
2023-04-17T12:49:59.756Z,8.4
2023-04-17T12:51:02.027Z,8.4
2023-04-17T12:52:03.707Z,8.5
2023-04-17T12:53:03.024Z,8.5
2023-04-17T12:54:01.897Z,8.5
2023-04-17T12:55:01.080Z,8.5
2023-04-17T12:56:01.060Z,8.5
2023-04-17T12:57:01.045Z,8.5
2023-04-17T12:58:05.422Z,8.5
2023-04-17T12:59:03.046Z,8.5
2023-04-17T13:00:01.576Z,8.5
2023-04-17T13:01:01.190Z,8.5
2023-04-17T13:02:01.165Z,8.5
2023-04-17T13:03:09.674Z,8.5
2023-04-17T13:04:02.819Z,8.5
2023-04-17T13:05:01.401Z,8.5
2023-04-17T13:06:01.366Z,8.5
2023-04-17T13:07:01.395Z,8.5
2023-04-17T13:08:11.908Z,8.5
2023-04-17T13:09:02.441Z,8.5
2023-04-17T13:10:01.095Z,8.4
2023-04-17T13:11:00.842Z,8.4
2023-04-17T13:12:00.484Z,8.5
2023-04-17T13:13:13.207Z,8.4
2023-04-17T13:14:02.115Z,8.4
2023-04-17T13:15:02.056Z,8.4
2023-04-17T13:16:00.777Z,8.4
2023-04-17T13:17:00.589Z,8.4
2023-04-17T13:18:14.535Z,8.3
2023-04-17T13:19:01.691Z,8.3
2023-04-17T13:20:01.188Z,8.3
2023-04-17T13:21:01.235Z,8.3
2023-04-17T13:22:01.214Z,8.3
2023-04-17T13:23:16.752Z,8.3
2023-04-17T13:24:02.148Z,8.3
2023-04-17T13:25:01.434Z,8.3
2023-04-17T13:26:01.043Z,8.4
2023-04-17T13:27:01.046Z,8.4
2023-04-17T13:28:01.083Z,8.4
2023-04-17T13:29:01.078Z,8.4
2023-04-17T13:30:01.206Z,8.5
2023-04-17T13:31:01.241Z,8.5
2023-04-17T13:32:01.902Z,8.5
2023-04-17T13:33:01.929Z,8.5
2023-04-17T13:34:01.112Z,8.5
2023-04-17T13:35:01.328Z,8.5
2023-04-17T13:36:01.476Z,8.5
2023-04-17T13:37:01.256Z,8.5
2023-04-17T13:38:01.397Z,8.5
2023-04-17T13:39:01.031Z,8.4
2023-04-17T13:40:01.133Z,8.4
2023-04-17T13:41:01.044Z,8.4
2023-04-17T13:42:01.061Z,8.4
2023-04-17T13:43:01.078Z,8.4
2023-04-17T13:44:01.081Z,8.4
2023-04-17T13:45:01.423Z,8.4
2023-04-17T13:46:04.960Z,8.3
2023-04-17T13:47:01.236Z,8.3
2023-04-17T13:48:01.243Z,8.3